< < Back
Terminal Aerodrome Forecast


Current Version              Previous Versions:   1  2  3  4  5  6  7  8  9  

Terminal Aerodrome Forecast

130
FTUS42 KMLB 010300 AAA
TAFMCO
TAF AMD
KMCO 010303Z 0103/0124 13003KT P6SM FEW250
     FM011500 13006KT P6SM FEW025=

Latest METAR

428
SAUS70 KWBC 011100 RRJ
MTRMCO
METAR KMCO 011053Z 00000KT 10SM BCFG CLR 24/23 A3009 RMK AO2 SLP186
T02440233


USA.gov is the U.S. government's official web portal to all federal, state and local government web resources and services.